createdAt,value
2022-12-15T21:50:38.453Z,99754.296875
2022-12-15T21:51:38.355Z,99751.48828125
2022-12-15T21:52:38.388Z,99748.91015625
2022-12-15T21:53:38.487Z,99747.109375
2022-12-15T21:54:38.372Z,99750.3828125
2022-12-15T21:55:41.440Z,99759.07421875
2022-12-15T21:56:38.510Z,99755.203125
2022-12-15T21:57:38.355Z,99758.52734375
2022-12-15T21:58:38.808Z,99755.0078125
2022-12-15T21:59:38.469Z,99753.15234375
2022-12-15T22:00:42.350Z,99752.76171875
2022-12-15T22:01:38.547Z,99752.9296875
2022-12-15T22:02:38.513Z,99753.23046875
2022-12-15T22:03:38.466Z,99752.90625
2022-12-15T22:04:38.499Z,99752.609375
2022-12-15T22:05:38.481Z,99756.80078125
2022-12-15T22:06:45.887Z,99755.68359375
2022-12-15T22:07:38.592Z,99756.671875
2022-12-15T22:08:38.481Z,99763.55859375
2022-12-15T22:09:38.361Z,99755.95703125
2022-12-15T22:10:38.377Z,99761.109375
2022-12-15T22:11:38.467Z,99760.40625
2022-12-15T22:12:38.374Z,99762.2109375
2022-12-15T22:13:38.380Z,99757.29296875
2022-12-15T22:14:38.512Z,99759.51953125
2022-12-15T22:15:38.491Z,99762.58203125
2022-12-15T22:16:38.392Z,99766.2734375
2022-12-15T22:17:41.458Z,99761.6875
2022-12-15T22:18:38.553Z,99764.1796875
2022-12-15T22:19:38.362Z,99763.28515625
2022-12-15T22:20:38.373Z,99763.9140625
2022-12-15T22:21:38.490Z,99762.09375
2022-12-15T22:22:38.403Z,99761.49609375
2022-12-15T22:23:38.521Z,99761.81640625
2022-12-15T22:24:38.379Z,99760.09765625
2022-12-15T22:25:38.383Z,99761.23046875
2022-12-15T22:26:38.430Z,99761.171875
2022-12-15T22:27:38.493Z,99765.18359375
2022-12-15T22:28:41.565Z,99763.3828125
2022-12-15T22:29:38.539Z,99764.62109375
2022-12-15T22:30:38.563Z,99767.84375
2022-12-15T22:31:38.382Z,99772.37109375
2022-12-15T22:32:38.393Z,99768.875
2022-12-15T22:33:38.467Z,99772.265625
2022-12-15T22:34:38.485Z,99770.1328125
2022-12-15T22:35:38.358Z,99768.1171875
2022-12-15T22:36:38.511Z,99766.953125
2022-12-15T22:37:38.635Z,99764.80078125
2022-12-15T22:38:38.487Z,99764.9375
2022-12-15T22:39:41.454Z,99763.33203125
2022-12-15T22:40:38.476Z,99762.73046875
2022-12-15T22:41:38.514Z,99763.33203125
2022-12-15T22:42:38.462Z,99763.01953125
2022-12-15T22:43:38.544Z,99762.33984375
2022-12-15T22:44:38.512Z,99764.69140625
2022-12-15T22:45:41.255Z,99764.09765625
2022-12-15T22:46:38.453Z,99762.75390625
2022-12-15T22:47:38.362Z,99761.828125
2022-12-15T22:48:38.810Z,99763.27734375
2022-12-15T22:49:38.487Z,99762.09375
2022-12-15T22:50:41.489Z,99760.04296875
2022-12-15T22:51:38.433Z,99762.4765625
2022-12-15T22:52:38.560Z,99762.10546875
2022-12-15T22:53:38.368Z,99763.83203125
2022-12-15T22:54:41.407Z,99763.62890625
2022-12-15T22:55:38.349Z,99765.859375
2022-12-15T22:56:38.367Z,99763.77734375
2022-12-15T22:57:38.673Z,99762.0390625
2022-12-15T22:58:38.840Z,99765.28125
2022-12-15T22:59:38.361Z,99760.6875
2022-12-15T23:00:38.358Z,99757.0703125
2022-12-15T23:01:41.526Z,99754.69140625
2022-12-15T23:02:38.787Z,99753.34765625
2022-12-15T23:03:38.448Z,99754.07421875
2022-12-15T23:04:38.372Z,99750.65234375
2022-12-15T23:05:38.383Z,99749.2109375
2022-12-15T23:06:38.378Z,99750.875
2022-12-15T23:07:38.646Z,99752.4609375
2022-12-15T23:08:38.384Z,99753.7421875
2022-12-15T23:09:38.379Z,99748.90234375
2022-12-15T23:10:38.354Z,99748.41015625
2022-12-15T23:11:38.382Z,99748.48828125
2022-12-15T23:12:41.604Z,99752.49609375
2022-12-15T23:13:38.462Z,99749.96875
2022-12-15T23:14:38.372Z,99750.48828125
2022-12-15T23:15:38.397Z,99754.09375
2022-12-15T23:16:38.391Z,99751.26171875
2022-12-15T23:17:38.382Z,99749.9375
2022-12-15T23:18:38.734Z,99748.17578125
2022-12-15T23:19:38.381Z,99749.2734375
2022-12-15T23:20:38.356Z,99749.32421875
2022-12-15T23:21:38.376Z,99746.66015625
2022-12-15T23:22:38.838Z,99747.6953125
2022-12-15T23:23:44.522Z,99749.81640625
2022-12-15T23:24:38.445Z,99754.01953125
2022-12-15T23:25:38.353Z,99754.43359375
2022-12-15T23:26:38.363Z,99753
2022-12-15T23:27:38.357Z,99753.07421875
2022-12-15T23:28:38.810Z,99750.41015625
2022-12-15T23:29:38.362Z,99746.14453125
2022-12-15T23:30:38.377Z,99743.75390625
2022-12-15T23:31:38.408Z,99748.74609375
2022-12-15T23:32:38.407Z,99739.63671875
2022-12-15T23:33:38.368Z,99744.1328125
2022-12-15T23:34:41.389Z,99743.140625
2022-12-15T23:35:38.460Z,99744.3671875
2022-12-15T23:36:38.357Z,99748.3203125
2022-12-15T23:37:38.802Z,99744.47265625
2022-12-15T23:38:38.725Z,99742.49609375
2022-12-15T23:39:38.459Z,99746.046875
2022-12-15T23:40:38.350Z,99748.46875
2022-12-15T23:41:38.363Z,99744.0625
2022-12-15T23:42:38.381Z,99748.0625
2022-12-15T23:43:38.377Z,99742.6875
2022-12-15T23:44:38.421Z,99744.2890625
2022-12-15T23:45:41.414Z,99736.93359375
2022-12-15T23:46:38.511Z,99745.359375
2022-12-15T23:47:38.375Z,99743.671875
2022-12-15T23:48:38.810Z,99745.41015625
2022-12-15T23:49:38.440Z,99741.55859375
2022-12-15T23:50:38.396Z,99744.03515625
2022-12-15T23:51:38.371Z,99744.12890625
2022-12-15T23:52:38.858Z,99743.9453125
2022-12-15T23:53:38.732Z,99744.99609375
2022-12-15T23:54:38.451Z,99746.3203125
2022-12-15T23:55:38.360Z,99742.1328125
2022-12-15T23:56:41.377Z,99746.7421875
2022-12-15T23:57:38.457Z,99744.89453125
2022-12-15T23:58:39.488Z,99741.0234375
2022-12-15T23:59:38.478Z,99741.26953125
